CMA CGM Musca — 2CAC8 — position and weather

sailwx.info

Track history (hours):
 
Tides and Currents Weather Stations Pressure Air Temp Water Temp Dewpoint Dewpoint Depression Visibility Wind Speed Wind Dir Waves Ship Positions

CMA CGM Musca

Last reported at 2015-Jul-31 06:33 UTC. Time now 2015-Jul-31 07:20 UTC.
Position N 36°37' W 008°42'.

Length 347 m; draft 13.7 m.

Type: Ship (hazmat cat A). MMSI: 235070914.

Date/timePositionNaut miles runAvg speedWind from/ knotsBaromVisibWave heightAir tempDewpointWater temp
2015-Jul-31 06:33N 36°37' W 008°42'2019.7
2015-Jul-31 05:33N 36°32' W 008°19'2120.3
2015-Jul-31 04:30N 36°25' W 007°53'1920.2
2015-Jul-31 03:33N 36°19' W 007°31'2120.1
2015-Jul-31 02:30N 36°12' W 007°06'213 6.8
2015-Jul-29 19:20N 36°12' W 002°42'1214.7
2015-Jul-29 18:29N 36°14' W 002°27'1415.3
2015-Jul-29 17:33N 36°18' W 002°10'1716.7
2015-Jul-29 16:33N 36°20' W 001°50'1817.5
2015-Jul-29 15:33N 36°24' W 001°28'1917.6
2015-Jul-29 14:28N 36°27' W 001°05'1617.6
2015-Jul-29 13:33N 36°29' W 000°45'1817.7
2015-Jul-29 12:33N 36°33' W 000°24'1817.5
2015-Jul-29 11:33N 36°36' W 000°02'1717.0
2015-Jul-29 10:33N 36°41' E 000°18'1717.0
2015-Jul-29 09:33N 36°45' E 000°39'1716.8
2015-Jul-29 08:33N 36°48' E 000°59'1717.1
2015-Jul-29 07:33N 36°51' E 001°20'1817.7
2015-Jul-29 06:33N 36°55' E 001°42'2019.6
2015-Jul-29 05:33N 36°59' E 002°06'1919.1
2015-Jul-29 04:33N 37°02' E 002°29'1919.1
2015-Jul-29 03:33N 37°06' E 002°53'2018.8
2015-Jul-29 02:29N 37°10' E 003°18'4018.9
2015-Jul-29 00:22N 37°18' E 004°07'3518.8
2015-Jul-28 22:30N 37°23' E 004°51'1818.5
2015-Jul-28 21:33N 37°25' E 005°13'29118.9
2015-Jul-28 06:08N 37°24' E 011°19'1219.0
2015-Jul-28 05:32N 37°18' E 011°31'1919.1
2015-Jul-28 04:33N 37°09' E 011°51'1919.0
2015-Jul-28 03:33N 37°00' E 012°13'1818.7
2015-Jul-28 02:33N 36°55' E 012°35'1918.9
2015-Jul-28 01:33N 36°48' E 012°57'1918.9
2015-Jul-28 00:33N 36°40' E 013°18'1918.9
2015-Jul-27 23:33N 36°35' E 013°41'1919.1
2015-Jul-27 22:33N 36°29' E 014°04'1919.2
2015-Jul-27 21:33N 36°23' E 014°26'1918.9
2015-Jul-27 20:32N 36°18' E 014°49'2318.9
2015-Jul-27 19:20N 36°16' E 015°18'1518.9
2015-Jul-27 18:33N 36°14' E 015°36'1918.6
2015-Jul-27 17:33N 36°12' E 015°59'46819.4
2015-Jul-26 17:21N 34°14' E 025°14'15319.2
2015-Jul-26 09:23N 33°15' E 028°03'1818.6
2015-Jul-26 08:25N 33°08' E 028°23'7619.2
2015-Jul-26 04:26N 32°38' E 029°46'1819.2
2015-Jul-26 03:32N 32°31' E 030°05'2419.3
2015-Jul-26 02:17N 32°22' E 030°32'1520.0
2015-Jul-26 01:32N 32°16' E 030°48'4119.5
2015-Jul-25 23:27N 32°02' E 031°33'1919.3
2015-Jul-25 22:27N 31°51' E 031°52'1517.1
2015-Jul-25 21:33N 31°40' E 032°05'1715.5
2015-Jul-25 20:28N 31°30' E 032°20'1210.1
2015-Jul-25 19:16N 31°18' E 032°22'7 9.5
2015-Jul-25 18:31N 31°11' E 032°20'9 8.9
2015-Jul-25 17:32N 31°02' E 032°19'1010.2
2015-Jul-25 16:33N 30°52' E 032°19'1210.1
2015-Jul-25 15:24N 30°40' E 032°20'53 5.9
2015-Jul-25 06:26N 29°49' E 032°34'0 0.0
2015-Jul-25 05:33N 29°49' E 032°34'0 0.0
2015-Jul-25 04:33N 29°49' E 032°34'0 0.0
2015-Jul-25 00:20N 29°49' E 032°34'  
Track history (hours):
 
Tides and Currents Weather Stations Pressure Air Temp Water Temp Dewpoint Dewpoint Depression Visibility Wind Speed Wind Dir Waves Ship Positions

CMA CGM Musca

Last reported at 2015-Jul-31 06:33 UTC. Time now 2015-Jul-31 07:20 UTC.
Position N 36°37' W 008°42'.

Length 347 m; draft 13.7 m.

Type: Ship (hazmat cat A). MMSI: 235070914.

Date/timePositionNaut miles runAvg speedWind from/ knotsBaromVisibWave heightAir tempDewpointWater temp
2015-Jul-31 06:33N 36°37' W 008°42'2019.7
2015-Jul-31 05:33N 36°32' W 008°19'2120.3
2015-Jul-31 04:30N 36°25' W 007°53'1920.2
2015-Jul-31 03:33N 36°19' W 007°31'2120.1
2015-Jul-31 02:30N 36°12' W 007°06'213 6.8
2015-Jul-29 19:20N 36°12' W 002°42'1214.7
2015-Jul-29 18:29N 36°14' W 002°27'1415.3
2015-Jul-29 17:33N 36°18' W 002°10'1716.7
2015-Jul-29 16:33N 36°20' W 001°50'1817.5
2015-Jul-29 15:33N 36°24' W 001°28'1917.6
2015-Jul-29 14:28N 36°27' W 001°05'1617.6
2015-Jul-29 13:33N 36°29' W 000°45'1817.7
2015-Jul-29 12:33N 36°33' W 000°24'1817.5
2015-Jul-29 11:33N 36°36' W 000°02'1717.0
2015-Jul-29 10:33N 36°41' E 000°18'1717.0
2015-Jul-29 09:33N 36°45' E 000°39'1716.8
2015-Jul-29 08:33N 36°48' E 000°59'1717.1
2015-Jul-29 07:33N 36°51' E 001°20'1817.7
2015-Jul-29 06:33N 36°55' E 001°42'2019.6
2015-Jul-29 05:33N 36°59' E 002°06'1919.1
2015-Jul-29 04:33N 37°02' E 002°29'1919.1
2015-Jul-29 03:33N 37°06' E 002°53'2018.8
2015-Jul-29 02:29N 37°10' E 003°18'4018.9
2015-Jul-29 00:22N 37°18' E 004°07'3518.8
2015-Jul-28 22:30N 37°23' E 004°51'1818.5
2015-Jul-28 21:33N 37°25' E 005°13'29118.9
2015-Jul-28 06:08N 37°24' E 011°19'1219.0
2015-Jul-28 05:32N 37°18' E 011°31'1919.1
2015-Jul-28 04:33N 37°09' E 011°51'1919.0
2015-Jul-28 03:33N 37°00' E 012°13'1818.7
2015-Jul-28 02:33N 36°55' E 012°35'1918.9
2015-Jul-28 01:33N 36°48' E 012°57'1918.9
2015-Jul-28 00:33N 36°40' E 013°18'1918.9
2015-Jul-27 23:33N 36°35' E 013°41'1919.1
2015-Jul-27 22:33N 36°29' E 014°04'1919.2
2015-Jul-27 21:33N 36°23' E 014°26'1918.9
2015-Jul-27 20:32N 36°18' E 014°49'2318.9
2015-Jul-27 19:20N 36°16' E 015°18'1518.9
2015-Jul-27 18:33N 36°14' E 015°36'1918.6
2015-Jul-27 17:33N 36°12' E 015°59'46819.4
2015-Jul-26 17:21N 34°14' E 025°14'15319.2
2015-Jul-26 09:23N 33°15' E 028°03'1818.6
2015-Jul-26 08:25N 33°08' E 028°23'7619.2
2015-Jul-26 04:26N 32°38' E 029°46'1819.2
2015-Jul-26 03:32N 32°31' E 030°05'2419.3
2015-Jul-26 02:17N 32°22' E 030°32'1520.0
2015-Jul-26 01:32N 32°16' E 030°48'4119.5
2015-Jul-25 23:27N 32°02' E 031°33'1919.3
2015-Jul-25 22:27N 31°51' E 031°52'1517.1
2015-Jul-25 21:33N 31°40' E 032°05'1715.5
2015-Jul-25 20:28N 31°30' E 032°20'1210.1
2015-Jul-25 19:16N 31°18' E 032°22'7 9.5
2015-Jul-25 18:31N 31°11' E 032°20'9 8.9
2015-Jul-25 17:32N 31°02' E 032°19'1010.2
2015-Jul-25 16:33N 30°52' E 032°19'1210.1
2015-Jul-25 15:24N 30°40' E 032°20'53 5.9
2015-Jul-25 06:26N 29°49' E 032°34'0 0.0
2015-Jul-25 05:33N 29°49' E 032°34'0 0.0
2015-Jul-25 04:33N 29°49' E 032°34'0 0.0
2015-Jul-25 00:20N 29°49' E 032°34'  

Dump ship's entire track history